Noshahr, Iran

12:20 PM IRDT on July 31, 2014 (GMT +0430)
Noshahr (OINN) Elev -62 ft | 36.66 °N, 51.46 °E | Change Station

Current weather conditions updated 50 minutes ago

Mostly Cloudy
Mostly Cloudy
82 °F
Feels Like 83 °F
N
5
Wind Variable Wind from East

Today is forecast to be nearly the same temperature as yesterday.

Today
High -- | Low -- °F
--% Chance of Precip.
Yesterday
High -- | Low -- °F
Precip. -- in
6:08 AM 8:11 PM
Waxing Crescent, 16% visible
Pressure 29.86 in
Visibility 6.2 miles
Clouds Scattered Clouds 3000 ft
Mostly Cloudy 9000 ft
Heat Index 83 °F
Dew Point 61 °F
Humidity 48%
Rainfall 0.00 in
Snow Depth Not available.
UV 5 out of 12
Pollen Not available.
Air Quality Not available.
Flu Activity Not available.
METAR OINN 310700Z 09004KT 9999 SCT030 BKN090 28/16 Q1011

More Conditions Fewer Conditions

Pressure 29.86 in
Visibility 6.2 miles
Clouds Scattered Clouds 3000 ft
Mostly Cloudy 9000 ft
Heat Index 83 °F
Dew Point 61 °F
Humidity 48%
Rainfall 0.00 in
Snow Depth Not available.
UV 5 out of 12
Pollen Not available.
Air Quality Not available.
Flu Activity Not available.
METAR OINN 310700Z 09004KT 9999 SCT030 BKN090 28/16 Q1011

More Conditions Fewer Conditions

10-Day Weather Forecast

Almanac

Astronomy

Jul. 31, 2014 Rise Set
Actual Time 6:08 AM IRDT 8:11 PM IRDT
Civil Twilight 5:40 AM IRDT 8:40 PM IRDT
Nautical Twilight 5:05 AM IRDT 9:14 PM IRDT
Astronomical Twilight 4:27 AM IRDT 9:52 PM IRDT
Moon 10:06 AM IRDT 10:20 PM IRDT
Length of Visible Light 14h 59m
Length of Day
14h 02m
Tomorrow will be 1m 43s shorter.
Waxing Crescent, 16% of the Moon is Illuminated
Today
Waxing Crescent
Aug 3
First Quarter
Aug 10
Full
Aug 17
Last Quarter
Aug 25
New

Yesterday's Extremes

Country Highs Country Lows

Community

WunderPhotos

Upload Photos

1,739,258 photos uploaded!

Nearby

Snow Depth

Not available.

Earthquake Activity

City Distance Mag. Time & Date
No recent earthquake activity has been reported nearby.
Minimum magnitude displayed is 2.5.

Coastal Water Temperatures

Place Temperature
No Stations Reporting

Nearby Weather Stations

There are no personal weather stations in this area.